createdAt,value
2023-01-03T00:00:02.761Z,73
2023-01-03T00:20:02.781Z,73
2023-01-03T00:40:03.232Z,72
2023-01-03T01:00:02.842Z,72
2023-01-03T01:20:02.819Z,72
2023-01-03T01:40:03.452Z,72
2023-01-03T02:00:03.008Z,70
2023-01-03T02:20:02.996Z,67
2023-01-03T02:40:02.531Z,66
2023-01-03T03:00:03.062Z,66
2023-01-03T03:20:07.153Z,66
2023-01-03T03:40:02.704Z,66
2023-01-03T04:00:03.133Z,67
2023-01-03T04:20:03.226Z,67
2023-01-03T04:40:02.743Z,67
2023-01-03T05:00:03.278Z,67
2023-01-03T05:20:03.318Z,68
2023-01-03T05:40:02.933Z,70
2023-01-03T06:00:02.415Z,70
2023-01-03T06:20:02.637Z,70
2023-01-03T06:40:03.204Z,71
2023-01-03T07:00:02.776Z,72
2023-01-03T07:20:02.689Z,72
2023-01-03T07:40:03.372Z,72
2023-01-03T08:00:02.883Z,72
2023-01-03T08:20:02.794Z,73
2023-01-03T08:40:03.276Z,73
2023-01-03T09:00:03.066Z,73
2023-01-03T09:20:02.757Z,73
2023-01-03T09:40:03.483Z,73
2023-01-03T10:00:03.734Z,72
2023-01-03T10:20:03.022Z,70
2023-01-03T10:40:02.599Z,67
2023-01-03T11:00:03.239Z,65
2023-01-03T11:20:05.356Z,64
2023-01-03T11:40:04.201Z,63
2023-01-03T12:00:02.852Z,63
2023-01-03T12:20:03.588Z,64
2023-01-03T12:40:03.073Z,65
2023-01-03T13:00:03.020Z,65
2023-01-03T13:20:03.250Z,65
2023-01-03T13:40:02.710Z,63
2023-01-03T14:00:05.774Z,63
2023-01-03T14:20:02.797Z,63
2023-01-03T14:40:03.502Z,63
2023-01-03T15:00:03.356Z,64
2023-01-03T15:20:03.293Z,64
2023-01-03T15:40:02.926Z,65
2023-01-03T16:00:03.081Z,65
2023-01-03T16:20:02.642Z,65
2023-01-03T16:40:03.497Z,66
2023-01-03T17:00:03.111Z,66
2023-01-03T17:20:06.487Z,66
2023-01-03T17:40:03.428Z,66
2023-01-03T18:00:04.240Z,67
2023-01-03T18:20:03.028Z,67
2023-01-03T18:40:02.530Z,67
2023-01-03T19:00:03.146Z,67
2023-01-03T19:20:03.059Z,67
2023-01-03T19:40:02.594Z,68
2023-01-03T20:00:03.085Z,69
2023-01-03T20:20:03.001Z,70
2023-01-03T20:40:02.390Z,71
2023-01-03T21:00:02.921Z,72
2023-01-03T21:20:02.906Z,73
2023-01-03T21:40:02.601Z,74
2023-01-03T22:00:03.223Z,74
2023-01-03T22:20:03.182Z,74
2023-01-03T22:40:02.608Z,75
2023-01-03T23:00:03.245Z,76
2023-01-03T23:20:03.033Z,76
2023-01-03T23:40:02.423Z,77
